createdAt,value
2022-09-14T00:28:00.788Z,0.1
2022-09-14T00:30:01.506Z,0.2
2022-09-14T00:43:00.748Z,0.1
2022-09-14T03:51:01.144Z,0.1
2022-09-14T03:53:00.770Z,0.2
2022-09-14T03:54:00.779Z,0.3
2022-09-14T03:56:00.956Z,0.4
2022-09-14T03:57:00.766Z,0.5
2022-09-14T03:59:00.771Z,0.6
2022-09-14T04:02:01.161Z,0.8
2022-09-14T04:03:00.883Z,0.9
2022-09-14T04:04:00.785Z,1.1
2022-09-14T04:05:00.766Z,1.2
2022-09-14T04:06:00.774Z,1.3
2022-09-14T04:07:01.053Z,1.5
2022-09-14T04:08:00.751Z,1.7
2022-09-14T04:09:00.783Z,1.9
2022-09-14T04:10:00.785Z,2.1
2022-09-14T04:11:00.905Z,2.4
2022-09-14T04:12:01.006Z,2.7
2022-09-14T04:13:00.777Z,3.3
2022-09-14T04:14:00.784Z,3.8
2022-09-14T04:16:00.809Z,5.2
2022-09-14T04:17:00.965Z,6.1
2022-09-14T04:18:00.753Z,7.4
2022-09-14T04:19:00.785Z,8.7
2022-09-14T04:20:01.442Z,10.1
2022-09-14T04:21:03.450Z,12.1
2022-09-14T04:22:00.978Z,14.2
2022-09-14T04:23:00.837Z,17.6
2022-09-14T04:24:14.470Z,21.0
2022-09-14T04:25:01.812Z,24.4
2022-09-14T04:26:00.757Z,29.7
2022-09-14T04:27:01.040Z,34.9
2022-09-14T04:28:17.058Z,43.4
2022-09-14T04:29:00.850Z,51.9
2022-09-14T04:31:00.845Z,73.3
2022-09-14T04:32:00.995Z,86.3
2022-09-14T04:33:00.760Z,104.9
2022-09-14T04:34:00.817Z,123.4
2022-09-14T04:36:00.850Z,166.5
2022-09-14T04:37:01.054Z,191.1
2022-09-14T04:38:00.759Z,220.9
2022-09-14T04:39:00.832Z,250.6
2022-09-14T04:41:00.767Z,318.5
2022-09-14T04:42:00.971Z,356.7
2022-09-14T04:43:00.829Z,405.6
2022-09-14T04:44:01.011Z,454.5
2022-09-14T04:45:01.289Z,503.3
2022-09-14T04:46:00.790Z,564.1
2022-09-14T04:47:01.023Z,624.9
2022-09-14T04:48:00.764Z,697.5
2022-09-14T04:49:00.806Z,770.1
2022-09-14T04:50:00.776Z,842.7
2022-09-14T04:51:00.759Z,932.3
2022-09-14T04:52:00.978Z,1021.9
2022-09-14T04:53:00.833Z,1131.1
2022-09-14T04:54:00.794Z,1240.2
2022-09-14T04:56:00.760Z,1485.3
2022-09-14T04:57:00.967Z,1621.3
2022-09-14T04:58:00.760Z,1774.7
2022-09-14T04:59:00.801Z,1928.0
2022-09-14T05:01:00.779Z,2246.9
2022-09-14T05:02:01.078Z,2412.5
2022-09-14T05:03:00.828Z,2615.9
2022-09-14T05:04:00.797Z,2819.2
2022-09-14T05:05:00.774Z,3022.5
2022-09-14T05:06:01.236Z,3279.5
2022-09-14T05:07:15.797Z,3536.4
2022-09-14T05:08:00.973Z,3823.0
2022-09-14T05:09:00.805Z,4109.6
2022-09-14T05:10:02.196Z,4396.2
2022-09-14T05:11:00.856Z,4690.3
2022-09-14T05:12:00.774Z,4984.5
2022-09-14T05:41:00.547Z,6158.5
2022-09-14T05:42:00.553Z,6249.7
2022-09-14T05:43:00.565Z,6266.3
2022-09-14T05:44:00.555Z,6276.2
2022-09-14T05:46:00.593Z,6377.4
2022-09-14T05:47:00.550Z,6448.4
2022-09-14T05:48:00.552Z,6630.6
2022-09-14T05:49:00.554Z,6776.3
2022-09-14T05:50:00.879Z,6895.5
2022-09-14T05:51:00.563Z,7072.3
2022-09-14T05:52:00.551Z,7221.9
2022-09-14T05:53:00.580Z,7599.0
2022-09-14T05:54:00.551Z,7925.8
2022-09-14T05:55:00.792Z,8366.9
2022-09-14T05:56:00.667Z,9288.9
2022-09-14T05:57:00.559Z,10210.9
2022-09-14T05:58:00.559Z,11504.0
2022-09-14T05:59:00.591Z,12797.1
2022-09-14T06:01:00.554Z,15529.8
2022-09-14T06:02:01.696Z,16969.3
2022-09-14T06:03:00.554Z,18358.4
2022-09-14T06:04:00.557Z,19747.5
2022-09-14T06:05:06.018Z,21136.5
2022-09-14T06:06:00.561Z,22625.0
2022-09-14T06:07:17.770Z,24113.5
2022-09-14T06:08:00.532Z,25460.8
2022-09-14T06:09:00.560Z,26808.1
2022-09-14T06:11:00.555Z,28979.7
2022-09-14T06:12:00.581Z,29804.0
2022-09-14T06:13:00.563Z,30655.9
2022-09-14T06:14:00.555Z,31507.9
2022-09-14T06:16:00.557Z,33271.6
2022-09-14T06:17:00.558Z,34183.4
2022-09-14T06:18:00.555Z,35223.5
2022-09-14T06:19:00.569Z,36263.5
2022-09-14T06:21:00.567Z,38130.6
2022-09-14T06:22:00.559Z,38957.6
2022-09-14T06:23:00.560Z,40142.3
2022-09-14T06:24:01.584Z,41327.1
2022-09-14T06:26:00.559Z,43348.7
2022-09-14T06:27:00.560Z,44185.5
2022-09-14T06:28:00.665Z,45377.8
2022-09-14T06:29:00.576Z,46570.1
2022-09-14T06:30:02.448Z,47762.3
2022-09-14T06:31:00.562Z,49122.5
2022-09-14T06:32:01.588Z,50482.6
2022-09-14T06:33:01.590Z,51883.3
2022-09-14T06:34:00.565Z,53283.9
2022-09-14T06:36:00.568Z,56137.0
2022-09-14T06:37:00.563Z,57589.4
2022-09-14T06:38:00.583Z,58592.9
2022-09-14T06:39:00.582Z,59596.5
2022-09-14T06:41:00.566Z,61957.1
2022-09-14T06:42:00.568Z,63314.1
2022-09-14T06:43:00.574Z,63924.7
2022-09-14T06:44:00.678Z,64535.3
2022-09-14T06:46:00.580Z,65340.5
2022-09-14T06:47:00.572Z,65535.0
2022-09-14T08:30:01.448Z,65535.0
2022-09-14T10:00:03.227Z,65535.0
2022-09-14T10:30:01.379Z,65535.0
2022-09-14T10:45:01.676Z,65535.0
2022-09-14T11:15:01.718Z,65535.0
2022-09-14T11:30:01.501Z,65535.0
2022-09-14T11:45:01.689Z,65535.0
2022-09-14T12:00:06.867Z,65535.0
2022-09-14T12:15:01.964Z,65535.0
2022-09-14T12:45:01.415Z,65535.0
2022-09-14T13:15:01.626Z,65535.0
2022-09-14T13:30:01.563Z,65535.0
2022-09-14T13:45:01.591Z,65535.0
2022-09-14T14:00:02.689Z,65535.0
2022-09-14T14:30:01.626Z,65535.0
2022-09-14T14:45:01.698Z,65535.0
2022-09-14T15:26:01.022Z,64988.1
2022-09-14T15:27:00.767Z,64441.1
2022-09-14T15:28:00.730Z,63894.2
2022-09-14T15:30:01.550Z,63894.2
2022-09-14T15:41:01.065Z,64441.1
2022-09-14T15:42:00.829Z,64988.1
2022-09-14T15:43:00.728Z,65535.0
2022-09-14T15:45:01.331Z,65535.0
2022-09-14T15:56:01.073Z,64988.9
2022-09-14T15:57:00.735Z,64442.7
2022-09-14T15:58:00.808Z,63896.6
2022-09-14T15:59:00.739Z,62674.7
2022-09-14T16:00:01.259Z,61452.7
2022-09-14T16:01:01.022Z,60174.3
2022-09-14T16:02:00.805Z,58895.9
2022-09-14T16:03:00.737Z,57617.5
2022-09-14T16:04:00.735Z,56931.4
2022-09-14T16:05:00.749Z,56245.3
2022-09-14T16:06:01.021Z,55537.9
2022-09-14T16:07:00.740Z,54830.6
2022-09-14T16:08:00.739Z,54123.3
2022-09-14T16:09:00.739Z,52808.9
2022-09-14T16:10:00.776Z,51494.6
2022-09-14T16:11:00.950Z,50372.5
2022-09-14T16:12:01.854Z,49250.3
2022-09-14T16:13:00.743Z,48128.2
2022-09-14T16:14:00.761Z,48077.4
2022-09-14T16:15:01.416Z,48026.6
2022-09-14T16:16:00.976Z,47933.2
2022-09-14T16:17:00.802Z,47839.8
2022-09-14T16:18:00.738Z,47746.4
2022-09-14T16:19:00.763Z,47165.7
2022-09-14T16:20:00.776Z,46585.1
2022-09-14T16:21:00.939Z,46231.7
2022-09-14T16:22:00.737Z,45878.3
2022-09-14T16:23:00.741Z,45524.9
2022-09-14T16:24:00.737Z,45436.9
2022-09-14T16:25:01.275Z,45348.9
2022-09-14T16:26:00.949Z,45851.7
2022-09-14T16:27:00.739Z,46354.5
2022-09-14T16:28:00.738Z,46857.3
2022-09-14T16:29:01.767Z,47029.3
2022-09-14T16:30:01.252Z,47201.4
2022-09-14T16:31:00.965Z,46419.5
2022-09-14T16:32:00.811Z,45637.7
2022-09-14T16:33:01.779Z,44855.8
2022-09-14T16:34:00.743Z,43554.9
2022-09-14T16:35:02.770Z,42253.9
2022-09-14T16:36:01.029Z,40628.5
2022-09-14T16:37:00.772Z,39003.1
2022-09-14T16:38:00.742Z,37377.7
2022-09-14T16:39:00.756Z,36028.4
2022-09-14T16:40:01.766Z,34679.1
2022-09-14T16:41:00.956Z,33053.7
2022-09-14T16:42:00.748Z,31428.3
2022-09-14T16:43:00.750Z,29802.9
2022-09-14T16:44:00.745Z,28088.3
2022-09-14T16:45:01.217Z,26373.7
2022-09-14T16:46:01.017Z,25641.2
2022-09-14T16:47:00.752Z,24908.7
2022-09-14T16:48:00.750Z,24176.3
2022-09-14T16:49:00.758Z,23762.9
2022-09-14T16:50:01.210Z,23349.5
2022-09-14T16:51:00.951Z,22987.7
2022-09-14T16:52:00.830Z,22626.0
2022-09-14T16:53:00.753Z,22264.3
2022-09-14T16:54:00.751Z,21978.9
2022-09-14T16:55:01.526Z,21693.5
2022-09-14T16:56:00.960Z,21467.4
2022-09-14T16:57:00.770Z,21241.3
2022-09-14T16:58:00.747Z,21015.3
2022-09-14T16:59:00.755Z,20712.7
2022-09-14T17:00:01.536Z,20410.1
2022-09-14T17:01:01.010Z,20149.3
2022-09-14T17:02:00.811Z,19888.5
2022-09-14T17:03:00.753Z,19627.7
2022-09-14T17:04:00.754Z,19275.0
2022-09-14T17:05:01.232Z,18922.3
2022-09-14T17:06:00.961Z,18589.5
2022-09-14T17:07:00.756Z,18256.7
2022-09-14T17:08:00.774Z,17923.9
2022-09-14T17:09:00.765Z,17492.2
2022-09-14T17:10:01.278Z,17060.5
2022-09-14T17:11:01.021Z,16417.5
2022-09-14T17:12:00.752Z,15774.5
2022-09-14T17:13:00.755Z,15131.5
2022-09-14T17:14:00.762Z,14538.5
2022-09-14T17:15:01.291Z,13945.5
2022-09-14T17:16:01.008Z,13361.3
2022-09-14T17:17:00.769Z,12777.1
2022-09-14T17:18:00.795Z,12192.9
2022-09-14T17:19:00.755Z,11769.1
2022-09-14T17:20:01.444Z,11345.4
2022-09-14T17:21:00.962Z,10964.2
2022-09-14T17:22:00.769Z,10583.0
2022-09-14T17:23:00.770Z,10201.8
2022-09-14T17:24:00.871Z,9768.2
2022-09-14T17:25:01.302Z,9334.6
2022-09-14T17:26:00.972Z,8999.7
2022-09-14T17:27:00.768Z,8664.9
2022-09-14T17:28:00.763Z,8330.0
2022-09-14T17:29:00.768Z,7975.5
2022-09-14T17:30:01.236Z,7620.9
2022-09-14T17:31:01.011Z,7228.0
2022-09-14T17:32:00.862Z,6835.1
2022-09-14T17:33:00.771Z,6442.1
2022-09-14T17:34:00.785Z,6029.8
2022-09-14T17:35:00.782Z,5617.5
2022-09-14T17:36:01.109Z,5194.4
2022-09-14T17:37:00.765Z,4771.3
2022-09-14T17:38:00.766Z,4348.3
2022-09-14T17:39:00.763Z,4047.8
2022-09-14T17:41:01.102Z,3513.8
2022-09-14T17:42:00.850Z,3280.3
2022-09-14T17:43:00.770Z,3046.7
2022-09-14T17:44:00.839Z,2865.8
2022-09-14T17:45:01.242Z,2684.9
2022-09-14T17:46:00.978Z,2538.3
2022-09-14T17:47:00.889Z,2391.8
2022-09-14T17:48:00.772Z,2245.3
2022-09-14T17:49:00.829Z,2120.6
2022-09-14T17:50:00.954Z,1995.9
2022-09-14T17:51:00.982Z,1864.4
2022-09-14T17:52:00.766Z,1732.9
2022-09-14T17:53:00.767Z,1601.3
2022-09-14T17:54:00.778Z,1472.1
2022-09-14T17:55:01.586Z,1342.8
2022-09-14T17:56:00.975Z,1227.3
2022-09-14T17:57:00.773Z,1111.7
2022-09-14T17:58:00.778Z,996.2
2022-09-14T17:59:01.034Z,890.1
2022-09-14T18:00:01.557Z,783.9
2022-09-14T18:01:16.058Z,696.3
2022-09-14T18:02:01.166Z,608.6
2022-09-14T18:03:00.773Z,520.9
2022-09-14T18:04:00.836Z,454.5
2022-09-14T18:05:00.808Z,388.0
2022-09-14T18:06:01.843Z,340.2
2022-09-14T18:07:00.923Z,292.4
2022-09-14T18:08:00.899Z,244.6
2022-09-14T18:09:01.799Z,210.3
2022-09-14T18:10:01.232Z,176.1
2022-09-14T18:11:00.779Z,152.5
2022-09-14T18:12:00.979Z,128.9
2022-09-14T18:13:00.781Z,105.3
2022-09-14T18:14:00.899Z,89.8
2022-09-14T18:15:01.290Z,74.3
2022-09-14T18:16:00.860Z,64.3
2022-09-14T18:17:01.048Z,54.2
2022-09-14T18:18:00.778Z,44.1
2022-09-14T18:19:00.798Z,36.5
2022-09-14T18:20:00.824Z,28.9
2022-09-14T18:21:00.789Z,24.4
2022-09-14T18:22:01.010Z,19.9
2022-09-14T18:23:00.844Z,15.3
2022-09-14T18:24:00.798Z,12.9
2022-09-14T18:25:00.830Z,10.4
2022-09-14T18:26:00.783Z,8.9
2022-09-14T18:27:00.992Z,7.5
2022-09-14T18:28:00.784Z,6.0
2022-09-14T18:29:00.783Z,5.0
2022-09-14T18:30:01.632Z,4.0
2022-09-14T18:31:00.869Z,3.3
2022-09-14T18:32:01.056Z,2.7
2022-09-14T18:33:00.803Z,2.0
2022-09-14T18:34:00.850Z,1.6
2022-09-14T18:35:00.827Z,1.2
2022-09-14T18:36:01.858Z,1.0
2022-09-14T18:37:01.018Z,0.8
2022-09-14T18:38:00.896Z,0.6
2022-09-14T18:39:00.779Z,0.5
2022-09-14T18:40:00.858Z,0.3
2022-09-14T18:42:01.052Z,0.2
2022-09-14T18:43:00.788Z,0.1
